Orenge 7 — JL6148 — position and weather

sailwx.info

Track history (hours):
 
Tides and Currents Weather Stations Pressure Air Temp Water Temp Dewpoint Dewpoint Depression Visibility Wind Speed Wind Dir Waves Ship Positions

Orenge 7

Last reported at 2017-Feb-26 12:33 UTC. Time now 2017-Feb-26 13:06 UTC.
Position N 34°37' E 135°26'.

Length 163 m; draft 4.9 m.

Type: Passenger vessel. MMSI: 431500186.

Date/timePositionNaut miles runAvg speedWind from/ knotsBaromVisibWave heightAir tempDewpointWater temp
2017-Feb-26 12:33N 34°37' E 135°26'0 0.0
2017-Feb-26 11:27N 34°37' E 135°26'0 0.0
2017-Feb-26 10:33N 34°37' E 135°26'0 0.0
2017-Feb-26 09:21N 34°37' E 135°26'0 0.0
2017-Feb-26 08:09N 34°37' E 135°26'0 0.0
2017-Feb-26 07:33N 34°37' E 135°26'0 0.0
2017-Feb-26 06:27N 34°37' E 135°26'0 0.0
2017-Feb-26 05:33N 34°37' E 135°26'0 0.0
2017-Feb-26 04:27N 34°37' E 135°26'0 0.0
2017-Feb-26 03:27N 34°37' E 135°26'0 0.0
2017-Feb-26 02:27N 34°37' E 135°26'0 0.0
2017-Feb-26 01:33N 34°37' E 135°26'0 0.0
2017-Feb-26 00:27N 34°37' E 135°26'0 0.0
2017-Feb-25 23:27N 34°37' E 135°26'0 0.0
2017-Feb-25 22:21N 34°37' E 135°26'0 0.0
2017-Feb-25 21:33N 34°37' E 135°26'5 5.2
2017-Feb-25 20:33N 34°36' E 135°20'1616.5
2017-Feb-25 19:33N 34°37' E 134°60'14 0.5
2017-Feb-24 15:13N 34°32' E 134°44'1217.6
2017-Feb-24 14:33N 34°37' E 134°57'1818.0
2017-Feb-24 13:33N 34°36' E 135°18'6 5.8
2017-Feb-24 12:28N 34°37' E 135°26'0 0.0
2017-Feb-24 11:28N 34°37' E 135°26'0 0.0
2017-Feb-24 10:22N 34°37' E 135°26'0 0.0
2017-Feb-24 09:28N 34°37' E 135°26'0 0.0
2017-Feb-24 08:28N 34°37' E 135°26'0 0.0
2017-Feb-24 07:28N 34°37' E 135°26'0 0.0
2017-Feb-24 06:28N 34°37' E 135°26'0 0.0
2017-Feb-24 05:22N 34°37' E 135°26'0 0.0
2017-Feb-24 04:16N 34°37' E 135°26'0 0.0
2017-Feb-24 03:28N 34°37' E 135°26'0 0.0
2017-Feb-24 02:28N 34°37' E 135°26'0 0.0
2017-Feb-24 01:28N 34°37' E 135°26'0 0.0
2017-Feb-24 00:28N 34°37' E 135°26'0 0.0
2017-Feb-23 23:28N 34°37' E 135°26'0 0.0
2017-Feb-23 22:28N 34°37' E 135°26'0 0.0
2017-Feb-23 21:28N 34°37' E 135°26'5 5.3
2017-Feb-23 20:33N 34°37' E 135°20'1817.6
2017-Feb-23 19:33N 34°37' E 134°59'117 8.1
2017-Feb-23 05:05N 33°59' E 132°44'917.2
2017-Feb-23 04:33N 33°53' E 132°36'1817.4
2017-Feb-23 03:33N 33°44' E 132°18'2316.4
2017-Feb-23 02:07N 33°49' E 131°51'  
Track history (hours):
 
Tides and Currents Weather Stations Pressure Air Temp Water Temp Dewpoint Dewpoint Depression Visibility Wind Speed Wind Dir Waves Ship Positions

Orenge 7

Last reported at 2017-Feb-26 12:33 UTC. Time now 2017-Feb-26 13:06 UTC.
Position N 34°37' E 135°26'.

Length 163 m; draft 4.9 m.

Type: Passenger vessel. MMSI: 431500186.

Date/timePositionNaut miles runAvg speedWind from/ knotsBaromVisibWave heightAir tempDewpointWater temp
2017-Feb-26 12:33N 34°37' E 135°26'0 0.0
2017-Feb-26 11:27N 34°37' E 135°26'0 0.0
2017-Feb-26 10:33N 34°37' E 135°26'0 0.0
2017-Feb-26 09:21N 34°37' E 135°26'0 0.0
2017-Feb-26 08:09N 34°37' E 135°26'0 0.0
2017-Feb-26 07:33N 34°37' E 135°26'0 0.0
2017-Feb-26 06:27N 34°37' E 135°26'0 0.0
2017-Feb-26 05:33N 34°37' E 135°26'0 0.0
2017-Feb-26 04:27N 34°37' E 135°26'0 0.0
2017-Feb-26 03:27N 34°37' E 135°26'0 0.0
2017-Feb-26 02:27N 34°37' E 135°26'0 0.0
2017-Feb-26 01:33N 34°37' E 135°26'0 0.0
2017-Feb-26 00:27N 34°37' E 135°26'0 0.0
2017-Feb-25 23:27N 34°37' E 135°26'0 0.0
2017-Feb-25 22:21N 34°37' E 135°26'0 0.0
2017-Feb-25 21:33N 34°37' E 135°26'5 5.2
2017-Feb-25 20:33N 34°36' E 135°20'1616.5
2017-Feb-25 19:33N 34°37' E 134°60'14 0.5
2017-Feb-24 15:13N 34°32' E 134°44'1217.6
2017-Feb-24 14:33N 34°37' E 134°57'1818.0
2017-Feb-24 13:33N 34°36' E 135°18'6 5.8
2017-Feb-24 12:28N 34°37' E 135°26'0 0.0
2017-Feb-24 11:28N 34°37' E 135°26'0 0.0
2017-Feb-24 10:22N 34°37' E 135°26'0 0.0
2017-Feb-24 09:28N 34°37' E 135°26'0 0.0
2017-Feb-24 08:28N 34°37' E 135°26'0 0.0
2017-Feb-24 07:28N 34°37' E 135°26'0 0.0
2017-Feb-24 06:28N 34°37' E 135°26'0 0.0
2017-Feb-24 05:22N 34°37' E 135°26'0 0.0
2017-Feb-24 04:16N 34°37' E 135°26'0 0.0
2017-Feb-24 03:28N 34°37' E 135°26'0 0.0
2017-Feb-24 02:28N 34°37' E 135°26'0 0.0
2017-Feb-24 01:28N 34°37' E 135°26'0 0.0
2017-Feb-24 00:28N 34°37' E 135°26'0 0.0
2017-Feb-23 23:28N 34°37' E 135°26'0 0.0
2017-Feb-23 22:28N 34°37' E 135°26'0 0.0
2017-Feb-23 21:28N 34°37' E 135°26'5 5.3
2017-Feb-23 20:33N 34°37' E 135°20'1817.6
2017-Feb-23 19:33N 34°37' E 134°59'117 8.1
2017-Feb-23 05:05N 33°59' E 132°44'917.2
2017-Feb-23 04:33N 33°53' E 132°36'1817.4
2017-Feb-23 03:33N 33°44' E 132°18'2316.4
2017-Feb-23 02:07N 33°49' E 131°51'  

Dump ship's entire track history